createdAt,value
2022-11-29T00:13:28.035Z,18.65
2022-11-29T00:20:45.632Z,20.15
2022-11-29T00:23:12.394Z,28.90
2022-11-29T00:25:39.041Z,19.05
2022-11-29T00:28:05.667Z,22.20
2022-11-29T00:30:32.442Z,20.27
2022-11-29T00:32:59.149Z,24.75
2022-11-29T00:35:25.771Z,24.85
2022-11-29T00:42:43.239Z,18.00
2022-11-29T00:45:10.452Z,21.60
2022-11-29T00:47:37.269Z,23.73
2022-11-29T00:50:04.346Z,25.10
2022-11-29T00:54:56.492Z,22.13
2022-11-29T00:57:23.218Z,19.30
2022-11-29T01:02:15.351Z,25.77
2022-11-29T01:04:42.304Z,17.52
2022-11-29T01:07:09.075Z,21.20
2022-11-29T01:09:35.798Z,16.77
2022-11-29T01:12:02.444Z,20.65
2022-11-29T01:14:29.037Z,14.95
2022-11-29T01:16:55.704Z,18.73
2022-11-29T01:19:22.302Z,15.88
2022-11-29T01:21:48.956Z,18.00
2022-11-29T01:24:15.646Z,20.85
2022-11-29T01:26:42.255Z,24.92
2022-11-29T01:36:30.322Z,22.92
2022-11-29T01:38:58.793Z,23.20
2022-11-29T01:41:26.684Z,19.98
2022-11-29T01:46:22.142Z,28.52
2022-11-29T01:48:49.367Z,18.58
2022-11-29T01:51:16.064Z,23.90
2022-11-29T01:53:42.770Z,18.40
2022-11-29T01:56:10.463Z,16.70
2022-11-29T01:58:37.336Z,16.50
2022-11-29T02:01:04.062Z,18.95
2022-11-29T02:03:30.795Z,15.50
2022-11-29T02:13:55.013Z,12.38
2022-11-29T02:16:25.222Z,13.65
2022-11-29T02:18:54.717Z,26.75
2022-11-29T02:24:10.949Z,23.60
2022-11-29T02:29:21.719Z,19.02
2022-11-29T02:34:38.837Z,11.25
2022-11-29T02:37:11.278Z,17.20
2022-11-29T02:39:56.923Z,19.23
2022-11-29T02:42:26.559Z,13.20
2022-11-29T02:45:03.225Z,23.92
2022-11-29T02:50:01.130Z,14.88
2022-11-29T02:52:31.098Z,18.30
2022-11-29T03:02:53.130Z,12.18
2022-11-29T03:08:03.959Z,18.35
2022-11-29T03:13:25.170Z,12.18
2022-11-29T03:18:23.133Z,20.70
2022-11-29T03:23:39.515Z,25.30
2022-11-29T03:26:06.406Z,20.85
2022-11-29T03:39:17.435Z,14.43
2022-11-29T03:41:48.311Z,13.23
2022-11-29T03:44:20.027Z,19.58
2022-11-29T03:46:56.641Z,22.02
2022-11-29T04:12:26.041Z,15.85
2022-11-29T04:17:40.082Z,42.47
2022-11-29T04:23:09.090Z,44.53
2022-11-29T04:26:01.954Z,25.92
2022-11-29T04:28:37.508Z,18.70
2022-11-29T04:31:16.348Z,15.85
2022-11-29T04:34:01.746Z,15.77
2022-11-29T04:47:06.549Z,20.50
2022-11-29T04:52:27.935Z,19.92
2022-11-29T04:57:28.823Z,12.25
2022-11-29T05:18:52.012Z,16.40
2022-11-29T05:39:31.044Z,17.73
2022-11-29T05:47:18.077Z,12.90
2022-11-29T05:49:52.435Z,13.70
2022-11-29T05:52:45.161Z,19.40
2022-11-29T05:55:14.617Z,17.10
2022-11-29T06:00:17.025Z,16.98
2022-11-29T06:02:46.536Z,14.65
2022-11-29T06:05:17.116Z,17.63
2022-11-29T06:07:48.442Z,10.00
2022-11-29T06:12:48.283Z,13.57
2022-11-29T06:18:01.745Z,14.70
2022-11-29T06:23:18.175Z,13.50
2022-11-29T06:26:14.095Z,10.50
2022-11-29T06:28:57.641Z,13.63
2022-11-29T06:31:27.274Z,10.68
2022-11-29T06:34:09.406Z,13.82
2022-11-29T06:39:14.606Z,16.80
2022-11-29T06:41:41.275Z,25.77
2022-11-29T06:44:08.621Z,18.13
2022-11-29T06:46:41.128Z,16.60
2022-11-29T07:00:04.404Z,12.30
2022-11-29T07:02:49.042Z,12.93
2022-11-29T07:05:15.963Z,17.67
2022-11-29T07:07:42.782Z,12.05
2022-11-29T07:10:19.309Z,12.43
2022-11-29T07:12:46.794Z,12.43
2022-11-29T07:15:14.838Z,17.20
2022-11-29T07:17:47.546Z,12.80
2022-11-29T07:20:14.217Z,17.88
2022-11-29T07:22:40.818Z,14.85
2022-11-29T07:25:25.488Z,17.00
2022-11-29T07:28:01.108Z,12.98
2022-11-29T07:30:27.820Z,6.10
2022-11-29T07:33:02.756Z,9.40
2022-11-29T07:38:05.548Z,11.77
2022-11-29T07:40:37.997Z,12.30
2022-11-29T07:43:07.875Z,13.15
2022-11-29T07:45:37.442Z,10.43
2022-11-29T07:48:04.331Z,13.02
2022-11-29T07:50:31.343Z,19.80
2022-11-29T07:52:58.107Z,14.77
2022-11-29T07:55:25.865Z,22.15
2022-11-29T07:57:52.979Z,16.35
2022-11-29T08:07:38.710Z,16.38
2022-11-29T08:10:07.285Z,16.60
2022-11-29T08:12:33.986Z,13.98
2022-11-29T08:15:00.898Z,16.60
2022-11-29T08:17:27.574Z,23.27
2022-11-29T08:19:54.184Z,13.98
2022-11-29T08:22:20.866Z,15.50
2022-11-29T08:24:47.896Z,13.05
2022-11-29T08:27:14.771Z,20.20
2022-11-29T08:29:41.553Z,27.00
2022-11-29T08:32:09.088Z,19.35
2022-11-29T08:34:35.810Z,21.98
2022-11-29T08:39:27.890Z,15.18
2022-11-29T08:50:07.186Z,20.55
2022-11-29T08:52:56.514Z,22.27
2022-11-29T08:57:51.005Z,22.95
2022-11-29T09:00:18.745Z,47.22
2022-11-29T09:02:45.494Z,41.53
2022-11-29T09:05:12.182Z,42.28
2022-11-29T09:07:39.126Z,45.10
2022-11-29T09:12:35.097Z,46.53
2022-11-29T09:15:01.993Z,38.40
2022-11-29T09:19:54.093Z,34.58
2022-11-29T09:22:20.802Z,31.30
2022-11-29T09:24:47.609Z,28.70
2022-11-29T09:27:14.426Z,21.65
2022-11-29T09:29:41.087Z,27.63
2022-11-29T09:32:07.910Z,32.78
2022-11-29T09:39:26.365Z,26.50
2022-11-29T09:49:41.407Z,19.20
2022-11-29T09:52:26.659Z,18.13
2022-11-29T09:55:11.895Z,22.63
2022-11-29T09:57:39.239Z,24.42
2022-11-29T10:05:21.455Z,20.15
2022-11-29T10:07:50.986Z,18.52
2022-11-29T10:12:56.654Z,20.42
2022-11-29T10:15:25.938Z,29.08
2022-11-29T10:18:11.279Z,26.52
2022-11-29T10:20:43.563Z,27.17
2022-11-29T10:23:24.788Z,21.35
2022-11-29T10:33:26.781Z,22.38
2022-11-29T10:35:57.527Z,20.73
2022-11-29T10:40:52.821Z,24.15
2022-11-29T10:43:19.534Z,23.25
2022-11-29T10:48:27.585Z,20.30
2022-11-29T10:58:33.972Z,18.98
2022-11-29T11:01:02.265Z,23.42
2022-11-29T11:06:06.113Z,25.75
2022-11-29T11:08:33.762Z,21.73
2022-11-29T11:11:02.120Z,19.55
2022-11-29T11:13:30.945Z,21.60
2022-11-29T11:15:58.782Z,24.30
2022-11-29T11:20:57.920Z,22.23
2022-11-29T11:25:58.034Z,23.83
2022-11-29T11:28:30.193Z,24.65
2022-11-29T11:30:56.881Z,25.90
2022-11-29T11:33:31.363Z,30.40
2022-11-29T11:36:02.151Z,22.20
2022-11-29T11:38:28.899Z,23.92
2022-11-29T11:43:29.216Z,30.23
2022-11-29T11:45:56.009Z,20.02
2022-11-29T11:48:22.830Z,24.90
2022-11-29T11:50:52.039Z,23.45
2022-11-29T11:53:23.555Z,33.70
2022-11-29T11:55:55.585Z,21.20
2022-11-29T11:58:23.330Z,20.90
2022-11-29T12:01:09.414Z,19.83
2022-11-29T12:06:23.094Z,20.35
2022-11-29T12:08:51.121Z,14.90
2022-11-29T12:11:18.430Z,16.55
2022-11-29T12:13:49.072Z,16.42
2022-11-29T12:16:19.484Z,20.20
2022-11-29T12:18:51.246Z,14.85
2022-11-29T12:21:21.792Z,12.25
2022-11-29T12:23:52.712Z,20.15
2022-11-29T12:26:55.781Z,14.93
2022-11-29T12:29:17.592Z,15.90
2022-11-29T12:31:55.331Z,13.40
2022-11-29T12:34:43.259Z,14.52
2022-11-29T12:54:56.162Z,12.05
2022-11-29T12:57:28.923Z,14.18
2022-11-29T13:03:07.751Z,16.08
2022-11-29T13:08:08.815Z,17.48
2022-11-29T13:10:44.758Z,33.53
2022-11-29T13:13:19.824Z,32.00
2022-11-29T13:18:30.489Z,16.33
2022-11-29T13:21:04.376Z,17.23
2022-11-29T13:26:37.881Z,14.93
2022-11-29T13:29:04.912Z,11.73
2022-11-29T13:31:32.162Z,12.85
2022-11-29T13:34:06.221Z,15.23
2022-11-29T13:36:33.422Z,9.35
2022-11-29T13:39:00.083Z,10.55
2022-11-29T13:41:26.746Z,8.02
2022-11-29T13:44:02.848Z,6.65
2022-11-29T13:51:34.221Z,13.82
2022-11-29T14:01:54.032Z,12.27
2022-11-29T14:04:29.114Z,10.23
2022-11-29T14:07:03.387Z,11.90
2022-11-29T14:09:42.380Z,11.40
2022-11-29T14:15:11.546Z,9.77
2022-11-29T14:17:48.925Z,9.68
2022-11-29T14:20:30.746Z,11.52
2022-11-29T14:23:06.512Z,17.67
2022-11-29T14:25:51.069Z,12.32
2022-11-29T14:28:29.187Z,11.82
2022-11-29T14:30:57.248Z,10.85
2022-11-29T14:41:45.030Z,10.45
2022-11-29T14:44:14.865Z,10.05
2022-11-29T14:46:41.631Z,7.45
2022-11-29T15:07:00.359Z,15.68
2022-11-29T15:09:27.578Z,9.90
2022-11-29T15:27:17.091Z,14.32
2022-11-29T15:29:48.266Z,12.50
2022-11-29T15:32:22.742Z,23.30
2022-11-29T15:34:55.873Z,17.48
2022-11-29T15:40:15.700Z,12.30
2022-11-29T15:42:54.071Z,10.60
2022-11-29T15:45:26.776Z,13.30
2022-11-29T15:50:26.968Z,19.30
2022-11-29T15:52:57.750Z,14.00
2022-11-29T15:55:25.019Z,14.07
2022-11-29T15:57:53.304Z,11.45
2022-11-29T16:05:32.910Z,17.98
2022-11-29T16:08:14.790Z,24.25
2022-11-29T16:16:05.688Z,20.38
2022-11-29T16:18:32.447Z,17.38
2022-11-29T16:21:00.196Z,18.70
2022-11-29T16:26:26.444Z,21.38
2022-11-29T16:28:54.313Z,15.65
2022-11-29T16:31:24.211Z,15.18
2022-11-29T16:33:52.615Z,16.63
2022-11-29T16:36:21.837Z,17.05
2022-11-29T16:44:29.692Z,55.67
2022-11-29T16:47:10.636Z,79.28
2022-11-29T16:54:48.938Z,233.48
2022-11-29T16:57:15.671Z,198.02
2022-11-29T16:59:42.357Z,113.25
2022-11-29T17:04:37.918Z,37.38
2022-11-29T17:07:06.348Z,33.25
2022-11-29T17:09:34.342Z,46.08
2022-11-29T17:12:02.204Z,83.13
2022-11-29T17:14:29.387Z,114.82
2022-11-29T17:16:56.249Z,157.27
2022-11-29T17:19:24.001Z,375.17
2022-11-29T17:21:51.425Z,344.58
2022-11-29T17:26:44.951Z,167.80
2022-11-29T17:29:13.414Z,119.30
2022-11-29T17:31:40.479Z,67.38
2022-11-29T17:34:07.222Z,50.65
2022-11-29T17:36:33.841Z,38.00
2022-11-29T17:46:20.591Z,40.65
2022-11-29T17:48:47.568Z,43.22
2022-11-29T17:51:43.620Z,46.83
2022-11-29T17:54:03.083Z,49.40
2022-11-29T17:56:30.401Z,50.65
2022-11-29T17:58:58.004Z,47.15
2022-11-29T18:11:13.732Z,42.30
2022-11-29T18:21:00.322Z,44.95
2022-11-29T18:23:30.192Z,41.75
2022-11-29T18:25:57.951Z,41.58
2022-11-29T18:38:16.864Z,48.70
2022-11-29T18:53:01.207Z,66.85
2022-11-29T18:55:28.111Z,48.92
2022-11-29T19:27:03.336Z,47.53
2022-11-29T19:29:32.915Z,48.03
2022-11-29T19:32:03.829Z,46.30
2022-11-29T19:34:30.822Z,50.45
2022-11-29T19:36:57.754Z,52.72
2022-11-29T19:46:53.017Z,67.78
2022-11-29T20:13:41.964Z,54.85
2022-11-29T20:16:10.445Z,59.67
2022-11-29T20:18:38.348Z,50.45
2022-11-29T21:15:12.257Z,79.18
2022-11-29T21:17:39.418Z,86.20
2022-11-29T21:20:06.745Z,84.57
2022-11-29T21:22:51.829Z,97.10
2022-11-29T21:25:27.165Z,96.97
2022-11-29T21:35:13.440Z,106.63
2022-11-29T21:37:40.381Z,85.82
2022-11-29T21:40:10.327Z,87.55
2022-11-29T21:42:37.381Z,78.80
2022-11-29T21:45:05.907Z,80.13
2022-11-29T21:47:34.794Z,77.93
2022-11-29T21:50:01.520Z,71.13
2022-11-29T21:52:28.214Z,71.80
2022-11-29T21:54:54.824Z,73.32
2022-11-29T22:02:12.477Z,75.43
2022-11-29T22:04:39.259Z,70.82
2022-11-29T22:07:05.886Z,77.97
2022-11-29T22:09:32.449Z,71.53
2022-11-29T22:21:48.024Z,82.97
2022-11-29T22:24:15.587Z,74.68
2022-11-29T22:29:10.315Z,84.85
2022-11-29T22:31:37.360Z,86.72
2022-11-29T22:36:29.492Z,87.20
2022-11-29T22:38:56.258Z,101.22
2022-11-29T22:41:22.955Z,94.32
2022-11-29T22:43:49.598Z,104.00
2022-11-29T22:46:17.584Z,88.30
2022-11-29T22:51:12.245Z,86.43
2022-11-29T22:53:40.375Z,77.15
2022-11-29T22:56:08.178Z,79.47
2022-11-29T22:58:34.911Z,92.10
2022-11-29T23:01:14.816Z,99.47
2022-11-29T23:03:44.878Z,77.95
2022-11-29T23:06:13.234Z,82.75
2022-11-29T23:11:06.779Z,81.97
2022-11-29T23:13:37.799Z,94.35
2022-11-29T23:16:05.643Z,76.35
2022-11-29T23:18:32.334Z,81.60
2022-11-29T23:21:06.945Z,79.72
2022-11-29T23:23:34.354Z,87.68
2022-11-29T23:26:01.320Z,84.47
2022-11-29T23:28:28.363Z,73.55
2022-11-29T23:30:55.112Z,93.82
2022-11-29T23:33:22.456Z,96.78
2022-11-29T23:38:15.450Z,88.50
2022-11-29T23:40:46.044Z,95.65
2022-11-29T23:45:38.784Z,90.47
2022-11-29T23:48:05.977Z,89.15
2022-11-29T23:50:32.677Z,83.38
2022-11-29T23:52:59.402Z,80.35
2022-11-29T23:55:26.147Z,87.95
2022-11-29T23:57:53.102Z,114.30
